Time;durP1;ratioP1;P1;durP2;ratioP2;P2;SDS_P1;SDS_P2;PMS_P1;PMS_P2;Temp;Humidity;BMP_temperature;BMP_pressure;BME280_temperature;BME280_humidity;BME280_pressure;Samples;Min_cycle;Max_cycle;Signal;HPM_P1;HPM_P2
2021/08/03 00:01:15;;;;;;;0.30;0.30;;;14.10;78.40;;;;;;4773786;30;20048;-88
2021/08/03 00:03:53;;;;;;;0.25;0.25;;;14.10;78.50;;;;;;4788680;30;20036;-88
2021/08/03 00:06:23;;;;;;;0.25;0.20;;;14.10;78.60;;;;;;4758706;30;20036;-88
2021/08/03 00:08:56;;;;;;;0.20;0.20;;;14.10;78.60;;;;;;4773681;30;20197;-88
2021/08/03 00:11:23;;;;;;;0.20;0.20;;;14.10;78.70;;;;;;4758447;30;20044;-88
2021/08/03 00:13:50;;;;;;;0.28;0.28;;;14.10;78.70;;;;;;4773713;30;20036;-88
2021/08/03 00:16:15;;;;;;;0.20;0.20;;;14.10;78.70;;;;;;4758327;30;20493;-88
2021/08/03 00:18:42;;;;;;;0.28;0.20;;;14.10;78.70;;;;;;4756963;30;20146;-88
2021/08/03 00:21:11;;;;;;;0.20;0.20;;;14.00;78.70;;;;;;4773695;30;20063;-88
2021/08/03 00:23:44;;;;;;;0.20;0.20;;;14.00;78.70;;;;;;4774428;30;20130;-88
2021/08/03 00:26:12;;;;;;;0.17;0.13;;;14.00;78.90;;;;;;4719511;30;20515;-88
2021/08/03 00:28:45;;;;;;;0.20;0.20;;;14.00;78.90;;;;;;4705103;30;20060;-88
2021/08/03 00:31:16;;;;;;;0.40;0.30;;;13.90;78.90;;;;;;4705240;30;20512;-87
2021/08/03 00:33:45;;;;;;;0.20;0.20;;;14.10;79.00;;;;;;4705342;30;20045;-88
2021/08/03 00:36:11;;;;;;;0.47;0.25;;;14.00;79.00;;;;;;4690935;30;20097;-88
2021/08/03 00:38:37;;;;;;;0.10;0.10;;;14.00;79.00;;;;;;4690640;30;20538;-88
2021/08/03 00:41:08;;;;;;;0.20;0.20;;;14.00;79.00;;;;;;4705043;30;20049;-87
2021/08/03 00:43:34;;;;;;;0.63;0.20;;;13.90;78.90;;;;;;4704092;30;20136;-88
2021/08/03 00:45:59;;;;;;;0.30;0.20;;;13.90;79.00;;;;;;4719816;30;20128;-88
2021/08/03 00:48:25;;;;;;;0.47;0.20;;;13.80;79.00;;;;;;4704832;30;20049;-88
2021/08/03 00:50:51;;;;;;;0.22;0.22;;;13.90;79.10;;;;;;4690058;30;20061;-88
2021/08/03 00:53:17;;;;;;;0.20;0.20;;;13.90;79.10;;;;;;4690797;30;20063;-88
2021/08/03 00:55:43;;;;;;;0.20;0.20;;;13.90;79.20;;;;;;4690690;30;20033;-88
2021/08/03 00:58:11;;;;;;;0.20;0.20;;;13.90;79.20;;;;;;4740317;30;20578;-88
2021/08/03 01:00:37;;;;;;;0.10;0.10;;;13.90;79.10;;;;;;4758002;30;20058;-88
2021/08/03 01:03:03;;;;;;;0.30;0.30;;;14.00;79.10;;;;;;4757372;30;20142;-88
2021/08/03 01:05:36;;;;;;;0.40;0.20;;;14.00;79.10;;;;;;4772485;30;20135;-88
2021/08/03 01:08:17;;;;;;;0.22;0.22;;;13.90;79.10;;;;;;4742197;30;20041;-88
2021/08/03 01:11:29;;;;;;;0.20;0.20;;;14.00;79.20;;;;;;4774345;29;20043;-88
2021/08/03 01:14:14;;;;;;;0.15;0.15;;;13.90;79.10;;;;;;4794224;29;20043;-88
2021/08/03 01:16:50;;;;;;;0.35;0.20;;;13.90;79.10;;;;;;4778057;29;20557;-88
2021/08/03 01:19:54;;;;;;;0.55;0.20;;;13.90;79.10;;;;;;4776416;29;20050;-88
2021/08/03 01:22:54;;;;;;;0.20;0.20;;;13.90;79.30;;;;;;4800466;29;20051;-87
2021/08/03 01:25:52;;;;;;;0.20;0.20;;;13.80;79.20;;;;;;4790349;29;20039;-88
2021/08/03 01:28:31;;;;;;;0.10;0.10;;;13.80;79.20;;;;;;4806063;29;20035;-88
2021/08/03 01:31:05;;;;;;;0.30;0.30;;;13.80;79.30;;;;;;4772033;29;20047;-88
2021/08/03 01:33:33;;;;;;;0.13;0.13;;;13.80;79.30;;;;;;4759889;29;20039;-88
2021/08/03 01:36:01;;;;;;;0.40;0.28;;;13.80;79.30;;;;;;4759050;30;20070;-88
2021/08/03 01:38:30;;;;;;;0.15;0.15;;;13.80;79.50;;;;;;4775553;29;20060;-88
2021/08/03 01:41:01;;;;;;;0.10;0.10;;;13.80;79.60;;;;;;4757375;30;20043;-88
2021/08/03 01:43:28;;;;;;;0.20;0.20;;;13.70;79.60;;;;;;4774996;29;20044;-88
2021/08/03 01:45:55;;;;;;;0.20;0.20;;;13.70;79.60;;;;;;4771737;30;20404;-88
2021/08/03 01:48:27;;;;;;;0.13;0.13;;;13.70;79.60;;;;;;4741494;30;20039;-88
2021/08/03 01:50:55;;;;;;;0.20;0.20;;;13.70;79.70;;;;;;4757148;30;20073;-88
2021/08/03 01:53:24;;;;;;;0.10;0.10;;;13.70;79.70;;;;;;4774073;29;20123;-88
2021/08/03 01:55:53;;;;;;;0.40;0.10;;;13.70;79.80;;;;;;4775098;29;20043;-88
2021/08/03 01:58:21;;;;;;;0.32;0.30;;;13.70;79.80;;;;;;4775251;29;20061;-88
2021/08/03 02:00:49;;;;;;;0.20;0.20;;;13.70;80.40;;;;;;4735286;30;20059;-88
2021/08/03 02:03:19;;;;;;;0.20;0.20;;;13.70;79.80;;;;;;4736504;30;20045;-88
2021/08/03 02:05:46;;;;;;;0.20;0.20;;;13.70;79.80;;;;;;4716532;30;20049;-88
2021/08/03 02:08:16;;;;;;;0.20;0.20;;;13.70;79.90;;;;;;4703680;30;20051;-88
2021/08/03 02:10:42;;;;;;;0.30;0.30;;;13.70;79.90;;;;;;4719176;30;20132;-88
2021/08/03 02:13:08;;;;;;;0.43;0.28;;;13.60;79.90;;;;;;4714272;30;20029;-88
2021/08/03 02:15:34;;;;;;;0.30;0.30;;;13.60;79.90;;;;;;4721736;30;20040;-88
2021/08/03 02:18:00;;;;;;;0.20;0.20;;;13.70;80.00;;;;;;4712283;30;20125;-87
2021/08/03 02:20:26;;;;;;;0.20;0.20;;;13.60;80.00;;;;;;4704475;30;20056;-88
2021/08/03 02:22:52;;;;;;;0.10;0.10;;;13.60;80.10;;;;;;4702146;30;20564;-88
2021/08/03 02:25:18;;;;;;;0.20;0.20;;;13.60;80.10;;;;;;4703887;30;20064;-88
2021/08/03 02:27:44;;;;;;;0.10;0.10;;;13.60;80.20;;;;;;4688455;30;20168;-88
2021/08/03 02:30:12;;;;;;;0.10;0.10;;;13.60;80.30;;;;;;4717153;30;20497;-87
2021/08/03 02:32:46;;;;;;;0.10;0.10;;;13.60;80.30;;;;;;4763281;30;20047;-88
2021/08/03 02:35:18;;;;;;;0.20;0.20;;;13.60;80.40;;;;;;4753638;30;20076;-87
2021/08/03 02:37:56;;;;;;;0.10;0.10;;;13.60;80.40;;;;;;4738118;30;20055;-88
2021/08/03 02:40:23;;;;;;;0.75;0.10;;;13.60;80.40;;;;;;4738759;30;20046;-88
2021/08/03 02:42:51;;;;;;;0.20;0.20;;;13.60;80.30;;;;;;4765752;29;20050;-87
2021/08/03 02:45:18;;;;;;;0.10;0.10;;;13.60;80.30;;;;;;4759469;29;20051;-88
2021/08/03 02:47:51;;;;;;;0.15;0.15;;;13.60;80.30;;;;;;4759981;29;20038;-88
2021/08/03 02:50:19;;;;;;;0.20;0.20;;;13.70;80.30;;;;;;4774281;29;20464;-87
2021/08/03 02:52:48;;;;;;;0.20;0.20;;;13.80;80.30;;;;;;4759873;29;20047;-89
2021/08/03 02:55:21;;;;;;;0.10;0.10;;;13.60;80.20;;;;;;4775031;29;20038;-88
2021/08/03 02:57:53;;;;;;;0.10;0.10;;;13.60;80.20;;;;;;4759906;29;20042;-88
2021/08/03 03:00:21;;;;;;;0.10;0.10;;;13.60;80.10;;;;;;4774929;29;20050;-88
2021/08/03 03:02:48;;;;;;;0.10;0.10;;;13.60;80.10;;;;;;4774453;29;20368;-89
2021/08/03 03:05:26;;;;;;;0.20;0.20;;;13.70;80.20;;;;;;4759001;29;20059;-88
2021/08/03 03:08:00;;;;;;;1.10;0.20;;;13.70;80.80;;;;;;4773825;29;20109;-88
2021/08/03 03:10:32;;;;;;;0.17;0.17;;;13.80;80.20;;;;;;4786775;29;20052;-88
2021/08/03 03:13:07;;;;;;;0.10;0.10;;;13.70;80.20;;;;;;4757149;29;20040;-85
2021/08/03 03:15:33;;;;;;;0.20;0.20;;;13.70;80.30;;;;;;4772919;29;20050;-88
2021/08/03 03:18:03;;;;;;;0.30;0.20;;;13.70;80.20;;;;;;4774464;29;20039;-88
2021/08/03 03:20:29;;;;;;;0.10;0.10;;;13.70;80.30;;;;;;4774304;29;20134;-88
2021/08/03 03:23:00;;;;;;;0.17;0.17;;;13.80;80.30;;;;;;4759219;29;20482;-88
2021/08/03 03:25:28;;;;;;;0.20;0.20;;;13.60;80.20;;;;;;4770010;30;20143;-88
2021/08/03 03:27:58;;;;;;;0.10;0.10;;;13.80;80.30;;;;;;4740378;30;20273;-88
2021/08/03 03:30:25;;;;;;;0.60;0.30;;;13.70;80.30;;;;;;4773811;29;20399;-87
2021/08/03 03:32:54;;;;;;;0.20;0.20;;;13.70;80.40;;;;;;4759107;29;20051;-88
2021/08/03 03:35:21;;;;;;;0.20;0.20;;;13.70;80.40;;;;;;4759137;29;20069;-88
2021/08/03 03:37:49;;;;;;;0.20;0.20;;;13.60;80.40;;;;;;4758964;29;20047;-87
2021/08/03 03:40:18;;;;;;;0.20;0.20;;;13.70;80.50;;;;;;4759148;29;20107;-87
2021/08/03 03:42:46;;;;;;;0.20;0.20;;;13.60;80.50;;;;;;4774126;29;20047;-87
2021/08/03 03:45:13;;;;;;;0.30;0.30;;;13.60;80.50;;;;;;4758146;29;20069;-87
2021/08/03 03:47:47;;;;;;;0.70;0.35;;;13.70;80.60;;;;;;4758639;29;20046;-87
2021/08/03 03:50:17;;;;;;;0.20;0.20;;;13.80;80.60;;;;;;4773530;29;20054;-87
2021/08/03 03:52:52;;;;;;;0.30;0.30;;;13.70;80.70;;;;;;4773039;29;20047;-87
2021/08/03 03:55:21;;;;;;;0.35;0.22;;;13.70;80.70;;;;;;4787383;29;20050;-86
2021/08/03 03:57:51;;;;;;;0.20;0.20;;;13.70;80.60;;;;;;4811365;29;20043;-87
2021/08/03 04:00:19;;;;;;;0.37;0.30;;;13.70;80.60;;;;;;4779594;29;20047;-86
2021/08/03 04:02:48;;;;;;;0.40;0.30;;;13.60;80.50;;;;;;4780536;29;20052;-86
2021/08/03 04:05:15;;;;;;;0.20;0.20;;;13.70;80.60;;;;;;4773738;29;20047;-86
2021/08/03 04:07:49;;;;;;;0.20;0.20;;;13.80;80.60;;;;;;4773576;29;20042;-85
2021/08/03 04:10:18;;;;;;;0.20;0.20;;;13.70;80.60;;;;;;4771935;30;20035;-86
2021/08/03 04:12:45;;;;;;;0.22;0.20;;;13.80;80.70;;;;;;4788711;29;20059;-87
2021/08/03 04:15:12;;;;;;;0.25;0.25;;;13.70;80.70;;;;;;4789276;30;20059;-86
2021/08/03 04:17:37;;;;;;;0.25;0.25;;;13.70;80.80;;;;;;4787994;29;20043;-86
2021/08/03 04:20:04;;;;;;;0.20;0.20;;;13.70;80.80;;;;;;4789584;30;20104;-86
2021/08/03 04:22:29;;;;;;;0.25;0.25;;;13.70;80.80;;;;;;4772861;30;20122;-86
2021/08/03 04:24:55;;;;;;;0.22;0.22;;;13.70;81.00;;;;;;4787955;30;20463;-87
2021/08/03 04:27:21;;;;;;;0.35;0.35;;;13.70;81.00;;;;;;4772302;30;20489;-87
2021/08/03 04:29:47;;;;;;;0.30;0.30;;;13.70;81.00;;;;;;4788220;30;20075;-87
2021/08/03 04:32:12;;;;;;;0.50;0.30;;;13.70;81.00;;;;;;4775793;29;20145;-87
2021/08/03 04:34:38;;;;;;;0.30;0.30;;;13.70;81.00;;;;;;4790044;29;20116;-86
2021/08/03 04:37:04;;;;;;;0.43;0.40;;;13.80;81.10;;;;;;4790483;29;20035;-87
2021/08/03 04:39:29;;;;;;;0.30;0.30;;;13.70;81.00;;;;;;4775178;29;20046;-86
2021/08/03 04:41:56;;;;;;;0.30;0.30;;;13.80;81.00;;;;;;4791816;29;20041;-86
2021/08/03 04:44:22;;;;;;;0.55;0.32;;;13.80;81.00;;;;;;4789604;29;20042;-86
2021/08/03 04:46:48;;;;;;;0.55;0.20;;;13.80;81.00;;;;;;4776459;29;20099;-86
2021/08/03 04:49:14;;;;;;;0.20;0.20;;;13.80;81.00;;;;;;4776171;29;20050;-86
2021/08/03 04:51:39;;;;;;;0.28;0.28;;;13.90;81.00;;;;;;4761613;29;20832;-86
2021/08/03 04:54:07;;;;;;;0.20;0.20;;;14.00;81.00;;;;;;4776034;29;20043;-87
2021/08/03 04:56:33;;;;;;;0.20;0.20;;;13.90;81.60;;;;;;4776971;29;20602;-86
2021/08/03 04:58:58;;;;;;;0.20;0.20;;;13.90;81.00;;;;;;4776657;29;20043;-86
2021/08/03 05:01:24;;;;;;;0.40;0.40;;;14.00;80.90;;;;;;4807189;29;20568;-87
2021/08/03 05:03:50;;;;;;;0.40;0.30;;;14.00;80.80;;;;;;4760869;29;20074;-87
2021/08/03 05:06:16;;;;;;;0.20;0.20;;;14.00;80.80;;;;;;4760300;29;20130;-86
2021/08/03 05:08:41;;;;;;;0.20;0.20;;;14.10;80.80;;;;;;4789938;29;20061;-87
2021/08/03 05:11:07;;;;;;;0.28;0.28;;;14.10;80.70;;;;;;4790137;29;20039;-87
2021/08/03 05:13:33;;;;;;;0.28;0.28;;;14.00;81.30;;;;;;4790298;29;20404;-86
2021/08/03 05:15:59;;;;;;;0.20;0.20;;;14.10;80.70;;;;;;4771536;30;20035;-88
2021/08/03 05:18:24;;;;;;;0.20;0.20;;;14.20;80.70;;;;;;4774985;29;20042;-87
2021/08/03 05:20:50;;;;;;;0.52;0.30;;;14.20;80.70;;;;;;4790410;29;20054;-86
2021/08/03 05:23:16;;;;;;;0.35;0.30;;;14.10;80.60;;;;;;4806497;29;20104;-87
2021/08/03 05:25:41;;;;;;;0.30;0.30;;;14.20;80.50;;;;;;4760305;29;20042;-87
2021/08/03 05:28:08;;;;;;;0.43;0.40;;;14.30;80.50;;;;;;4760171;29;20039;-86
2021/08/03 05:30:34;;;;;;;0.30;0.30;;;14.40;80.50;;;;;;4774413;29;20050;-86
2021/08/03 05:33:00;;;;;;;0.30;0.20;;;14.40;80.40;;;;;;4775169;29;20034;-86
2021/08/03 05:35:26;;;;;;;0.50;0.40;;;14.40;80.40;;;;;;4775514;29;20183;-85
2021/08/03 05:37:51;;;;;;;0.45;0.30;;;14.50;80.50;;;;;;4789750;29;20828;-86
2021/08/03 05:40:20;;;;;;;0.30;0.30;;;14.40;80.40;;;;;;4774911;29;20554;-85
2021/08/03 05:42:46;;;;;;;0.63;0.40;;;14.40;80.50;;;;;;4786766;30;20082;-85
2021/08/03 05:45:12;;;;;;;0.50;0.50;;;14.40;80.50;;;;;;4780125;29;20043;-84
2021/08/03 05:47:38;;;;;;;0.45;0.45;;;14.40;80.50;;;;;;4809091;29;20065;-84
2021/08/03 05:50:05;;;;;;;0.45;0.40;;;14.50;80.60;;;;;;4779735;29;20085;-84
2021/08/03 05:52:32;;;;;;;0.30;0.30;;;14.50;80.50;;;;;;4801200;29;20055;-85
2021/08/03 05:54:58;;;;;;;0.25;0.22;;;14.60;81.20;;;;;;4777703;29;20035;-85
2021/08/03 05:57:23;;;;;;;0.60;0.28;;;14.60;80.60;;;;;;4762994;29;20946;-85
2021/08/03 05:59:49;;;;;;;0.40;0.40;;;14.60;80.60;;;;;;4802448;29;20046;-84
2021/08/03 06:02:15;;;;;;;0.30;0.30;;;14.60;80.70;;;;;;4792982;29;20047;-85
2021/08/03 06:04:41;;;;;;;0.30;0.30;;;14.60;80.70;;;;;;4812948;29;20039;-85
2021/08/03 06:07:10;;;;;;;0.68;0.32;;;14.70;80.70;;;;;;4777824;29;21401;-85
2021/08/03 06:09:37;;;;;;;0.30;0.30;;;14.80;80.80;;;;;;4793045;29;20038;-85
2021/08/03 06:12:04;;;;;;;0.55;0.32;;;14.70;80.70;;;;;;4808503;29;20117;-85
2021/08/03 06:14:36;;;;;;;0.63;0.57;;;14.70;80.70;;;;;;4777611;29;20050;-85
2021/08/03 06:17:05;;;;;;;0.22;0.22;;;14.70;80.70;;;;;;4795497;29;20035;-85
2021/08/03 06:19:40;;;;;;;1.08;0.40;;;14.80;80.70;;;;;;4778164;29;20038;-84
2021/08/03 06:22:06;;;;;;;0.77;0.40;;;14.80;80.70;;;;;;4802682;29;20034;-83
2021/08/03 06:24:32;;;;;;;0.30;0.30;;;14.80;80.70;;;;;;4766181;29;20368;-84
2021/08/03 06:26:58;;;;;;;0.30;0.30;;;14.80;80.70;;;;;;4780369;29;20043;-85
2021/08/03 06:29:26;;;;;;;0.47;0.47;;;14.70;80.60;;;;;;4778514;29;20049;-85
2021/08/03 06:31:54;;;;;;;0.30;0.30;;;14.90;80.80;;;;;;4779486;29;20046;-85
2021/08/03 06:34:21;;;;;;;0.35;0.35;;;14.90;80.80;;;;;;4763963;29;20499;-85
2021/08/03 06:36:47;;;;;;;0.30;0.30;;;14.80;80.70;;;;;;4763888;29;20092;-85
2021/08/03 06:39:12;;;;;;;0.65;0.47;;;15.00;80.80;;;;;;4780043;29;20043;-86
2021/08/03 06:41:40;;;;;;;0.20;0.20;;;14.90;80.60;;;;;;4784639;29;20072;-83
2021/08/03 06:44:16;;;;;;;0.95;0.32;;;15.00;80.70;;;;;;4801749;29;20050;-83
2021/08/03 06:46:56;;;;;;;0.30;0.30;;;15.00;80.60;;;;;;4769717;29;20039;-84
2021/08/03 06:49:22;;;;;;;0.40;0.40;;;15.00;80.50;;;;;;4795535;29;20057;-84
2021/08/03 06:51:54;;;;;;;0.68;0.40;;;15.20;80.60;;;;;;4821942;29;20050;-84
2021/08/03 06:54:21;;;;;;;;;;;15.20;80.50;;;;;;4773947;29;20095;-84
2021/08/03 06:56:53;;;;;;;0.43;0.43;;;15.30;80.40;;;;;;4800635;29;19909;-84
2021/08/03 07:00:03;;;;;;;0.32;0.32;;;15.30;80.30;;;;;;4810443;29;20117;-83
2021/08/03 07:02:30;;;;;;;0.50;0.50;;;15.30;80.30;;;;;;4780373;29;20132;-83
2021/08/03 07:05:09;;;;;;;0.50;0.50;;;15.40;80.20;;;;;;4762888;30;20046;-82
2021/08/03 07:08:10;;;;;;;0.50;0.50;;;15.40;80.70;;;;;;4787338;29;20051;-86
2021/08/03 07:10:37;;;;;;;0.80;0.50;;;15.50;80.00;;;;;;4769953;30;20138;-84
2021/08/03 07:13:03;;;;;;;0.90;0.45;;;15.60;79.80;;;;;;4785272;30;20053;-83
2021/08/03 07:15:45;;;;;;;0.32;0.32;;;15.80;79.70;;;;;;4770236;30;20051;-86
2021/08/03 07:18:12;;;;;;;0.52;0.50;;;15.90;79.60;;;;;;4751649;30;20039;-86
2021/08/03 07:23:44;;;;;;;0.85;0.60;;;16.10;79.30;;;;;;4755547;30;20054;-86
2021/08/03 07:26:30;;;;;;;0.55;0.52;;;16.20;79.20;;;;;;4784430;30;20064;-87
2021/08/03 07:29:29;;;;;;;1.00;0.70;;;16.20;79.10;;;;;;4754076;30;20044;-90
2021/08/03 07:31:55;;;;;;;1.10;0.90;;;16.40;78.90;;;;;;4721250;30;20061;-83
2021/08/03 07:34:21;;;;;;;0.70;0.70;;;16.40;78.80;;;;;;4740449;30;20064;-83
2021/08/03 07:36:48;;;;;;;1.83;1.20;;;16.50;78.80;;;;;;4741495;30;20052;-83
2021/08/03 07:42:56;;;;;;;1.65;0.95;;;16.70;78.70;;;;;;4693191;30;20063;-87
2021/08/03 07:46:44;;;;;;;0.82;0.60;;;16.90;78.60;;;;;;4652212;30;20046;-90
2021/08/03 07:49:15;;;;;;;0.95;0.70;;;17.00;78.30;;;;;;4611144;31;20078;-86
2021/08/03 07:53:04;;;;;;;0.82;0.70;;;17.20;78.00;;;;;;4575206;31;20060;-91
2021/08/03 07:56:05;;;;;;;1.90;1.10;;;17.30;77.80;;;;;;4579947;31;20056;-88
2021/08/03 07:58:57;;;;;;;2.10;1.00;;;17.50;77.50;;;;;;4554175;31;20044;-88
2021/08/03 08:01:23;;;;;;;1.90;1.20;;;17.60;77.40;;;;;;4551939;31;20054;-85
2021/08/03 08:04:18;;;;;;;3.22;1.30;;;17.60;77.50;;;;;;4548964;31;20442;-87
2021/08/03 08:06:44;;;;;;;1.55;1.20;;;17.50;77.50;;;;;;4564861;31;20075;-83
2021/08/03 08:09:10;;;;;;;1.73;1.20;;;17.60;77.50;;;;;;4554030;31;20057;-85
2021/08/03 08:11:36;;;;;;;1.85;1.40;;;17.70;77.70;;;;;;4561784;31;20065;-85
2021/08/03 08:14:02;;;;;;;1.13;1.02;;;17.60;77.70;;;;;;4548408;31;20199;-85
2021/08/03 08:16:54;;;;;;;1.35;0.98;;;17.70;77.80;;;;;;4535261;31;20488;-88
2021/08/03 08:19:20;;;;;;;2.05;1.40;;;17.70;77.90;;;;;;4558087;31;20067;-85
2021/08/03 08:21:46;;;;;;;1.48;1.00;;;17.80;77.90;;;;;;4583503;31;20065;-85
2021/08/03 08:24:12;;;;;;;2.67;1.38;;;17.80;77.80;;;;;;4597533;31;20072;-85
2021/08/03 08:26:41;;;;;;;0.85;0.75;;;17.80;77.90;;;;;;4653673;30;20084;-85
2021/08/03 08:29:08;;;;;;;1.17;0.95;;;17.90;77.90;;;;;;4684907;30;20118;-81
2021/08/03 08:31:34;;;;;;;1.30;1.00;;;17.80;77.90;;;;;;4743473;30;20055;-79
2021/08/03 08:34:00;;;;;;;0.70;0.70;;;17.90;78.00;;;;;;4787105;30;20134;-79
2021/08/03 08:36:26;;;;;;;1.27;1.00;;;17.90;78.10;;;;;;4786668;30;20114;-79
2021/08/03 08:38:51;;;;;;;1.30;1.00;;;17.90;78.10;;;;;;4787213;30;20043;-79
2021/08/03 08:41:17;;;;;;;1.83;1.10;;;17.90;78.20;;;;;;4786851;30;20043;-79
2021/08/03 08:43:43;;;;;;;1.50;1.00;;;17.90;78.30;;;;;;4788435;30;20041;-80
2021/08/03 08:46:09;;;;;;;1.73;1.02;;;17.90;78.20;;;;;;4788512;30;20130;-78
2021/08/03 08:48:36;;;;;;;1.80;1.15;;;18.00;78.30;;;;;;4798907;30;20051;-78
2021/08/03 08:51:03;;;;;;;1.45;1.08;;;18.00;78.80;;;;;;4794090;30;20067;-84
2021/08/03 08:53:29;;;;;;;1.45;1.08;;;18.10;78.10;;;;;;4771743;30;20051;-79
2021/08/03 08:55:55;;;;;;;0.90;0.80;;;18.20;78.10;;;;;;4797411;29;20043;-78
2021/08/03 08:58:20;;;;;;;1.05;0.90;;;18.20;77.90;;;;;;4799784;29;20039;-77
2021/08/03 09:00:46;;;;;;;1.05;0.95;;;18.30;77.90;;;;;;4812036;29;20039;-78
2021/08/03 09:03:46;;;;;;;1.67;1.20;;;18.40;77.90;;;;;;4808795;29;20050;-82
2021/08/03 09:06:12;;;;;;;1.17;0.90;;;18.40;77.60;;;;;;4754591;30;20128;-80
2021/08/03 09:08:40;;;;;;;1.33;0.95;;;18.50;77.60;;;;;;4712251;30;20099;-80
2021/08/03 09:11:08;;;;;;;1.85;1.10;;;18.60;77.50;;;;;;4723893;30;20164;-78
2021/08/03 09:13:49;;;;;;;1.63;1.10;;;18.70;77.50;;;;;;4741498;30;20049;-78
2021/08/03 09:16:15;;;;;;;1.08;0.98;;;18.70;77.30;;;;;;4742017;30;20071;-78
2021/08/03 09:18:43;;;;;;;1.05;0.88;;;18.80;77.20;;;;;;4727522;30;20041;-82
2021/08/03 09:21:25;;;;;;;1.02;0.90;;;18.90;77.10;;;;;;4743554;30;20131;-78
2021/08/03 09:23:54;;;;;;;2.60;0.98;;;19.00;77.00;;;;;;4728298;30;20049;-81
2021/08/03 09:26:38;;;;;;;1.67;1.27;;;19.00;76.90;;;;;;4722754;30;20064;-80
2021/08/03 09:29:17;;;;;;;0.88;0.80;;;19.20;76.90;;;;;;4733317;30;20043;-83
2021/08/03 09:31:52;;;;;;;2.03;1.13;;;19.20;76.70;;;;;;4712538;30;20060;-82
2021/08/03 09:34:20;;;;;;;1.15;0.90;;;19.20;76.60;;;;;;4703665;30;20040;-82
2021/08/03 09:36:49;;;;;;;1.95;0.80;;;19.30;76.70;;;;;;4738716;30;20152;-78
2021/08/03 09:39:40;;;;;;;1.15;1.05;;;19.30;76.60;;;;;;4772712;30;20082;-78
2021/08/03 09:42:09;;;;;;;0.80;0.80;;;19.20;76.80;;;;;;4770597;30;20082;-77
2021/08/03 09:44:36;;;;;;;1.63;1.10;;;19.20;77.00;;;;;;4757761;30;20055;-80
2021/08/03 09:47:03;;;;;;;2.22;1.20;;;19.20;77.00;;;;;;4773152;30;20055;-80
2021/08/03 09:49:34;;;;;;;1.67;1.00;;;19.30;77.00;;;;;;4755886;30;20052;-81
2021/08/03 09:52:09;;;;;;;1.40;0.95;;;19.30;76.90;;;;;;4757227;30;20050;-79
2021/08/03 09:54:36;;;;;;;1.63;1.00;;;19.40;76.90;;;;;;4770245;30;20047;-80
2021/08/03 09:57:04;;;;;;;1.23;1.10;;;19.40;76.90;;;;;;4764496;29;20039;-80
2021/08/03 09:59:37;;;;;;;1.20;0.98;;;19.20;76.90;;;;;;4773621;29;20047;-82
2021/08/03 10:02:04;;;;;;;2.25;1.50;;;19.30;77.00;;;;;;4775303;29;20112;-78
2021/08/03 10:04:32;;;;;;;2.33;1.30;;;19.30;77.00;;;;;;4774838;29;20483;-82
2021/08/03 10:06:59;;;;;;;1.70;1.40;;;19.40;77.10;;;;;;4805500;29;20043;-82
2021/08/03 10:09:25;;;;;;;1.20;0.90;;;19.40;77.00;;;;;;4790259;29;20105;-80
2021/08/03 10:11:54;;;;;;;1.33;1.10;;;19.40;76.90;;;;;;4773911;29;20448;-79
2021/08/03 10:14:21;;;;;;;1.67;1.30;;;19.50;76.90;;;;;;4803220;29;20513;-80
2021/08/03 10:16:47;;;;;;;2.13;1.48;;;19.60;76.80;;;;;;4802997;29;20031;-79
2021/08/03 10:19:19;;;;;;;2.33;1.45;;;19.70;76.60;;;;;;4788621;29;20133;-81
2021/08/03 10:21:48;;;;;;;2.55;1.55;;;19.70;76.50;;;;;;4773198;29;20126;-82
2021/08/03 10:24:22;;;;;;;1.98;1.40;;;19.90;76.30;;;;;;4787801;29;20569;-80
2021/08/03 10:27:06;;;;;;;3.67;1.63;;;19.90;76.20;;;;;;4787703;29;20075;-81
2021/08/03 10:29:33;;;;;;;1.95;1.60;;;20.10;76.00;;;;;;4786256;29;20107;-80
2021/08/03 10:32:11;;;;;;;3.15;1.80;;;20.10;75.80;;;;;;4787525;29;20078;-82
2021/08/03 10:34:57;;;;;;;2.50;1.73;;;20.00;75.80;;;;;;4761285;30;20130;-80
2021/08/03 10:37:24;;;;;;;2.25;1.63;;;20.00;75.70;;;;;;4754767;30;20055;-81
2021/08/03 10:39:54;;;;;;;2.67;1.92;;;20.20;75.80;;;;;;4756723;30;20046;-78
2021/08/03 10:42:23;;;;;;;2.53;1.77;;;20.10;75.80;;;;;;4777641;30;20055;-78
2021/08/03 10:44:52;;;;;;;1.88;1.42;;;20.30;75.90;;;;;;4751184;30;20040;-79
2021/08/03 10:47:42;;;;;;;3.95;1.92;;;20.30;75.70;;;;;;4740026;30;20044;-80
2021/08/03 10:50:13;;;;;;;2.13;1.42;;;20.40;75.60;;;;;;4718809;30;20396;-81
2021/08/03 10:52:52;;;;;;;2.58;1.77;;;20.50;75.50;;;;;;4720440;30;20052;-84
2021/08/03 10:56:23;;;;;;;1.73;1.45;;;20.40;75.30;;;;;;4737277;30;20058;-85
2021/08/03 11:02:56;;;;;;;2.70;1.80;;;20.30;75.70;;;;;;4729311;30;20079;-85
2021/08/03 11:05:26;;;;;;;3.17;1.90;;;20.30;75.70;;;;;;4713468;30;20045;-85
2021/08/03 11:07:57;;;;;;;3.03;2.20;;;20.40;75.60;;;;;;4696816;30;20103;-85
2021/08/03 11:10:33;;;;;;;3.35;2.20;;;20.40;75.50;;;;;;4728400;30;20052;-86
2021/08/03 11:12:59;;;;;;;3.28;2.30;;;20.40;75.40;;;;;;4722026;30;20048;-85
2021/08/03 11:16:09;;;;;;;2.97;1.92;;;20.30;75.70;;;;;;4721175;30;20432;-84
2021/08/03 11:18:44;;;;;;;3.13;2.28;;;20.30;75.80;;;;;;4668569;30;20090;-88
2021/08/03 11:21:13;;;;;;;3.65;2.10;;;20.40;75.60;;;;;;4608143;31;20062;-85
2021/08/03 11:23:53;;;;;;;2.80;1.95;;;20.40;75.50;;;;;;4626927;31;20067;-85
2021/08/03 11:26:20;;;;;;;2.00;1.80;;;20.40;75.60;;;;;;4640932;31;20060;-85
2021/08/03 11:29:04;;;;;;;2.28;1.70;;;20.40;75.50;;;;;;4643648;31;20089;-85
2021/08/03 11:31:38;;;;;;;2.50;1.90;;;20.50;75.40;;;;;;4630370;31;20058;-85
2021/08/03 11:34:06;;;;;;;1.70;1.55;;;20.60;75.50;;;;;;4626473;31;20052;-86
2021/08/03 11:36:36;;;;;;;3.05;2.13;;;20.40;75.40;;;;;;4629290;31;20097;-86
2021/08/03 11:39:24;;;;;;;3.15;2.30;;;20.40;75.50;;;;;;4606941;31;20100;-89
2021/08/03 11:41:51;;;;;;;2.80;2.17;;;20.40;75.50;;;;;;4623767;30;20066;-86
2021/08/03 11:44:18;;;;;;;2.53;2.03;;;20.40;75.60;;;;;;4639758;30;20122;-82
2021/08/03 11:47:45;;;;;;;3.28;2.20;;;20.40;75.50;;;;;;4637768;30;20063;-87
2021/08/03 11:50:56;;;;;;;3.53;2.35;;;20.50;75.40;;;;;;4701050;30;20057;-89
2021/08/03 11:53:26;;;;;;;3.40;2.25;;;20.50;75.50;;;;;;4720658;30;20060;-87
2021/08/03 12:00:08;;;;;;;2.53;1.90;;;20.40;75.50;;;;;;4682119;30;20137;-87
2021/08/03 12:02:41;;;;;;;3.05;1.90;;;20.40;75.30;;;;;;4654313;30;20049;-87
2021/08/03 12:05:12;;;;;;;1.88;1.60;;;20.40;75.40;;;;;;4674377;30;20064;-88
2021/08/03 12:08:05;;;;;;;;;;;20.40;75.40;;;;;;4700046;30;20053;-88
2021/08/03 12:11:03;;;;;;;2.40;1.75;;;20.40;75.30;;;;;;4710621;30;19927;-90
2021/08/03 12:13:52;;;;;;;2.97;1.60;;;20.30;75.20;;;;;;4712864;30;20083;-88
2021/08/03 12:16:31;;;;;;;1.50;1.40;;;20.40;75.10;;;;;;4699395;30;20061;-88
2021/08/03 12:22:38;;;;;;;2.33;1.65;;;20.40;74.90;;;;;;4639936;30;20047;-88
2021/08/03 12:25:04;;;;;;;1.88;1.60;;;20.40;74.90;;;;;;4693414;30;20045;-87
2021/08/03 12:27:52;;;;;;;2.17;1.75;;;20.50;74.80;;;;;;4710720;30;20558;-88
2021/08/03 12:30:33;;;;;;;2.40;1.60;;;20.60;74.50;;;;;;4680337;30;20502;-87
2021/08/03 12:36:19;;;;;;;2.47;1.80;;;20.80;74.00;;;;;;4635720;30;20100;-87
2021/08/03 12:39:28;;;;;;;1.70;1.37;;;20.70;73.70;;;;;;4632700;30;20066;-88
2021/08/03 12:42:33;;;;;;;2.17;1.83;;;20.80;73.60;;;;;;4645256;30;20043;-90
2021/08/03 12:48:28;;;;;;;1.98;1.63;;;20.80;73.30;;;;;;4610604;31;20086;-89
2021/08/03 12:50:54;;;;;;;1.73;1.40;;;20.80;73.50;;;;;;4579151;31;20161;-84
2021/08/03 12:56:57;;;;;;;1.80;1.50;;;20.70;73.50;;;;;;4597332;31;20082;-85
2021/08/03 12:59:40;;;;;;;1.67;1.40;;;20.60;73.70;;;;;;4583104;31;20056;-85
2021/08/03 13:02:10;;;;;;;2.85;1.98;;;20.60;74.00;;;;;;4563747;31;20130;-84
2021/08/03 13:04:36;;;;;;;2.55;2.00;;;20.40;74.00;;;;;;4562436;31;20051;-88
2021/08/03 13:07:05;;;;;;;2.67;2.03;;;20.40;74.10;;;;;;4594836;31;20156;-89
2021/08/03 13:09:32;;;;;;;2.45;1.83;;;20.30;74.20;;;;;;4607119;31;20048;-88
2021/08/03 13:11:59;;;;;;;2.65;1.83;;;20.30;74.30;;;;;;4642315;30;20168;-86
2021/08/03 13:14:25;;;;;;;2.08;1.85;;;20.30;74.90;;;;;;4616213;30;20047;-87
2021/08/03 13:16:56;;;;;;;2.47;1.90;;;20.10;74.30;;;;;;4678720;30;20057;-88
2021/08/03 13:19:31;;;;;;;2.33;1.90;;;20.20;74.30;;;;;;4681121;30;20045;-89
2021/08/03 13:21:58;;;;;;;1.63;1.40;;;20.10;74.30;;;;;;4657212;30;20069;-87
2021/08/03 13:24:28;;;;;;;2.30;1.75;;;20.10;74.30;;;;;;4651844;30;20153;-84
2021/08/03 13:26:57;;;;;;;3.25;2.00;;;20.20;74.40;;;;;;4646784;30;20050;-85
2021/08/03 13:29:31;;;;;;;1.55;1.40;;;20.20;74.30;;;;;;4648071;30;20423;-87
2021/08/03 13:31:57;;;;;;;2.30;1.73;;;20.10;74.20;;;;;;4630364;30;20059;-86
2021/08/03 13:34:59;;;;;;;3.38;1.85;;;20.10;74.30;;;;;;4623645;30;20054;-90
2021/08/03 13:40:58;;;;;;;1.70;1.40;;;20.10;74.10;;;;;;4652637;30;20051;-86
2021/08/03 13:43:24;;;;;;;1.42;1.30;;;20.10;74.00;;;;;;4647709;30;20530;-88
2021/08/03 13:45:49;;;;;;;2.53;1.52;;;20.10;73.90;;;;;;4647291;30;20142;-87